Time;durP1;ratioP1;P1;durP2;ratioP2;P2;SDS_P1;SDS_P2;PMS_P1;PMS_P2;Temp;Humidity;BMP_temperature;BMP_pressure;BME280_temperature;BME280_humidity;BME280_pressure;Samples;Min_cycle;Max_cycle;Signal;HPM_P1;HPM_P2
2020/12/15 00:01:23;;;;;;;16.48;9.83;;;;;;;0.18;81.49;96711.22;1697698;83;21120;-83
2020/12/15 00:03:50;;;;;;;12.05;7.67;;;;;;;0.21;81.50;96715.29;1706315;83;21311;-83
2020/12/15 00:06:16;;;;;;;11.33;7.95;;;;;;;0.25;81.52;96714.95;1699707;83;21251;-83
2020/12/15 00:08:42;;;;;;;9.63;6.42;;;;;;;0.30;81.36;96715.89;1675600;84;21502;-83
2020/12/15 00:11:08;;;;;;;8.60;5.72;;;;;;;0.26;81.23;96711.47;1727433;81;21086;-82
2020/12/15 00:13:34;;;;;;;6.85;4.97;;;;;;;0.20;81.22;96707.27;1711763;82;21115;-82
2020/12/15 00:16:00;;;;;;;8.13;5.33;;;;;;;0.17;81.34;96705.75;1716794;81;21091;-82
2020/12/15 00:18:26;;;;;;;9.55;7.62;;;;;;;0.18;81.37;96701.45;1712795;80;21106;-82
2020/12/15 00:20:52;;;;;;;7.53;5.78;;;;;;;0.16;81.26;96705.84;1731773;81;21155;-82
2020/12/15 00:23:18;;;;;;;6.75;5.17;;;;;;;0.11;81.31;96700.25;1731287;81;21106;-82
2020/12/15 00:25:44;;;;;;;7.62;5.25;;;;;;;0.06;81.33;96704.88;1710851;82;21170;-82
2020/12/15 00:28:10;;;;;;;7.53;4.42;;;;;;;0.09;81.34;96707.21;1724016;81;21106;-83
2020/12/15 00:30:37;;;;;;;6.20;5.20;;;;;;;0.10;81.26;96690.48;1719367;82;21151;-82
2020/12/15 00:33:03;;;;;;;8.10;4.70;;;;;;;0.09;81.27;96690.60;1712606;82;21091;-82
2020/12/15 00:35:29;;;;;;;5.95;4.50;;;;;;;0.07;81.34;96688.16;1718668;81;21103;-84
2020/12/15 00:37:55;;;;;;;7.62;5.55;;;;;;;0.10;81.27;96690.95;1739953;81;21094;-84
2020/12/15 00:40:21;;;;;;;7.40;5.03;;;;;;;0.12;81.16;96691.66;1710790;82;21142;-84
2020/12/15 00:42:47;;;;;;;6.90;5.20;;;;;;;0.13;81.06;96697.94;1703933;82;21126;-84
2020/12/15 00:45:13;;;;;;;8.88;6.10;;;;;;;0.14;81.08;96694.45;1712997;82;21091;-84
2020/12/15 00:47:39;;;;;;;9.73;5.72;;;;;;;0.13;81.05;96692.01;1723525;81;21106;-82
2020/12/15 00:50:07;;;;;;;10.78;5.45;;;;;;;0.10;80.94;96691.77;1752565;81;21222;-82
2020/12/15 00:52:33;;;;;;;4.87;4.00;;;;;;;0.08;80.98;96691.53;1712081;80;21138;-82
2020/12/15 00:54:59;;;;;;;5.30;4.47;;;;;;;0.09;81.08;96698.27;1712496;82;21228;-82
2020/12/15 00:57:25;;;;;;;3.70;3.25;;;;;;;0.10;81.05;96702.45;1710746;82;21248;-83
2020/12/15 00:59:53;;;;;;;3.77;2.80;;;;;;;0.08;80.97;96706.86;1709747;82;21229;-83
2020/12/15 01:02:20;;;;;;;6.28;4.17;;;;;;;0.05;81.05;96706.63;1741410;81;21079;-83
2020/12/15 01:04:46;;;;;;;3.87;2.37;;;;;;;0.03;80.85;96708.94;1761401;81;21411;-82
2020/12/15 01:07:12;;;;;;;4.55;3.02;;;;;;;0.00;80.81;96709.97;1761287;80;21141;-82
2020/12/15 01:09:38;;;;;;;4.25;2.50;;;;;;;0.00;80.99;96712.53;1763998;80;21125;-82
2020/12/15 01:12:12;;;;;;;3.77;3.08;;;;;;;-0.02;81.04;96713.89;1770713;80;21134;-83
2020/12/15 01:14:38;;;;;;;3.47;2.80;;;;;;;-0.03;80.99;96716.55;1763623;80;21115;-82
2020/12/15 01:17:11;;;;;;;3.85;3.42;;;;;;;-0.07;80.75;96718.97;1763457;80;21076;-82
2020/12/15 01:19:40;;;;;;;4.05;3.47;;;;;;;-0.10;80.84;96723.84;1759537;80;21371;-82
2020/12/15 01:22:11;;;;;;;6.22;3.90;;;;;;;-0.11;80.67;96726.50;1767631;80;21514;-82
2020/12/15 01:24:37;;;;;;;5.80;4.42;;;;;;;-0.15;80.72;96725.09;1692111;84;21110;-82
2020/12/15 01:27:03;;;;;;;6.83;4.65;;;;;;;-0.13;80.88;96718.95;1719064;81;21148;-83
2020/12/15 01:29:29;;;;;;;3.75;3.00;;;;;;;-0.11;80.86;96720.94;1751264;81;21535;-82
2020/12/15 01:31:55;;;;;;;4.62;3.20;;;;;;;-0.14;80.75;96720.34;1752341;81;21117;-83
2020/12/15 01:34:21;;;;;;;4.90;3.62;;;;;;;-0.18;80.78;96713.80;1747805;81;21103;-82
2020/12/15 01:36:47;;;;;;;4.53;3.42;;;;;;;-0.21;80.79;96717.38;1759390;81;21262;-83
2020/12/15 01:39:13;;;;;;;3.40;2.80;;;;;;;-0.18;80.85;96712.05;1688087;84;22437;-82
2020/12/15 01:41:39;;;;;;;4.08;3.67;;;;;;;-0.20;80.78;96699.86;1752029;81;21135;-82
2020/12/15 01:44:05;;;;;;;3.85;3.10;;;;;;;-0.21;80.80;96695.67;1748487;81;21233;-82
2020/12/15 01:46:33;;;;;;;5.08;3.52;;;;;;;-0.22;80.78;96691.95;1756450;81;21163;-83
2020/12/15 01:48:59;;;;;;;3.33;3.02;;;;;;;-0.25;80.71;96694.73;1768542;80;21118;-84
2020/12/15 01:51:27;;;;;;;4.37;3.33;;;;;;;-0.24;80.77;96688.70;1767070;80;21135;-84
2020/12/15 01:53:58;;;;;;;4.15;3.35;;;;;;;-0.25;80.77;96687.06;1763218;80;21085;-85
2020/12/15 01:56:24;;;;;;;4.58;3.55;;;;;;;-0.23;80.82;96684.75;1691630;84;21248;-85
2020/12/15 01:58:58;;;;;;;4.72;3.62;;;;;;;-0.19;80.83;96680.24;1764060;80;21113;-84
2020/12/15 02:01:24;;;;;;;5.25;4.03;;;;;;;-0.23;80.68;96668.16;1760226;80;21648;-83
2020/12/15 02:03:51;;;;;;;5.50;3.98;;;;;;;-0.25;80.76;96670.47;1767413;80;21616;-83
2020/12/15 02:06:19;;;;;;;4.72;3.30;;;;;;;-0.21;80.73;96670.59;1761349;80;21244;-83
2020/12/15 02:08:45;;;;;;;4.42;3.70;;;;;;;-0.25;80.70;96671.75;1760434;80;21364;-83
2020/12/15 02:11:11;;;;;;;3.75;3.37;;;;;;;-0.22;80.76;96673.61;1753794;81;21409;-83
2020/12/15 02:13:38;;;;;;;5.25;3.52;;;;;;;-0.19;80.85;96673.39;1751555;81;21470;-82
2020/12/15 02:16:06;;;;;;;4.72;3.22;;;;;;;-0.19;80.45;96668.75;1760260;81;21115;-82
2020/12/15 02:18:34;;;;;;;5.35;3.30;;;;;;;-0.28;80.34;96674.52;1764304;81;21956;-82
2020/12/15 02:21:05;;;;;;;3.85;3.12;;;;;;;-0.32;80.47;96677.76;1758626;81;21083;-83
2020/12/15 02:23:32;;;;;;;3.30;2.65;;;;;;;-0.37;80.45;96679.80;1753432;81;21373;-83
2020/12/15 02:25:58;;;;;;;3.47;3.12;;;;;;;-0.41;80.56;96673.28;1758825;81;21416;-82
2020/12/15 02:28:24;;;;;;;4.33;2.83;;;;;;;-0.42;80.74;96675.02;1666411;84;21176;-82
2020/12/15 02:30:50;;;;;;;3.98;2.85;;;;;;;-0.42;80.84;96672.47;1715297;83;21467;-82
2020/12/15 02:33:16;;;;;;;2.95;2.65;;;;;;;-0.40;80.69;96674.91;1684059;84;21150;-82
2020/12/15 02:35:42;;;;;;;3.83;2.95;;;;;;;-0.39;80.63;96679.91;1761196;81;21135;-83
2020/12/15 02:38:08;;;;;;;3.85;2.98;;;;;;;-0.39;80.65;96677.35;1756636;81;21122;-82
2020/12/15 02:40:34;;;;;;;5.22;3.95;;;;;;;-0.38;80.47;96672.59;1760265;81;21747;-84
2020/12/15 02:43:00;;;;;;;8.10;5.10;;;;;;;-0.43;80.29;96667.00;1756560;81;21138;-85
2020/12/15 02:45:26;;;;;;;6.50;4.58;;;;;;;-0.46;80.45;96676.63;1760104;81;21125;-83
2020/12/15 02:47:52;;;;;;;6.65;5.35;;;;;;;-0.44;80.55;96674.77;1757208;81;21126;-85
2020/12/15 02:50:21;;;;;;;7.75;4.10;;;;;;;-0.42;80.58;96672.92;1760141;81;21075;-84
2020/12/15 02:52:48;;;;;;;4.80;3.80;;;;;;;-0.43;80.46;96669.56;1683898;84;21154;-84
2020/12/15 02:55:14;;;;;;;6.60;4.33;;;;;;;-0.46;80.43;96671.52;1751752;81;21118;-82
2020/12/15 02:57:40;;;;;;;5.22;3.98;;;;;;;-0.48;80.46;96665.70;1752093;81;21119;-84
2020/12/15 03:00:10;;;;;;;5.15;3.77;;;;;;;-0.49;80.37;96662.77;1753391;80;21141;-82
2020/12/15 03:02:36;;;;;;;5.37;3.30;;;;;;;-0.53;80.46;96658.34;1685843;84;21130;-83
2020/12/15 03:05:04;;;;;;;3.98;3.20;;;;;;;-0.53;80.47;96656.25;1703696;83;21130;-82
2020/12/15 03:07:32;;;;;;;3.77;3.22;;;;;;;-0.55;80.47;96660.66;1708103;83;21835;-82
2020/12/15 03:09:59;;;;;;;4.40;3.35;;;;;;;-0.56;80.54;96656.47;1710250;83;21252;-84
2020/12/15 03:12:27;;;;;;;3.90;3.40;;;;;;;-0.55;80.52;96659.38;1701043;83;21137;-83
2020/12/15 03:14:53;;;;;;;4.50;3.85;;;;;;;-0.55;80.53;96658.92;1705405;83;21432;-82
2020/12/15 03:17:19;;;;;;;4.92;4.05;;;;;;;-0.52;80.37;96664.27;1695913;83;21356;-83
2020/12/15 03:19:45;;;;;;;7.37;6.05;;;;;;;-0.54;80.31;96661.01;1703343;83;21152;-82
2020/12/15 03:22:17;;;;;;;8.95;5.42;;;;;;;-0.56;80.41;96653.92;1754819;81;21106;-83
2020/12/15 03:24:43;;;;;;;6.28;5.45;;;;;;;-0.52;80.30;96657.42;1749921;81;21095;-83
2020/12/15 03:27:10;;;;;;;6.12;4.92;;;;;;;-0.54;80.38;96654.16;1752001;81;21129;-83
2020/12/15 03:29:36;;;;;;;8.88;6.60;;;;;;;-0.56;80.40;96652.18;1753760;81;21253;-83
2020/12/15 03:32:03;;;;;;;10.35;7.05;;;;;;;-0.58;80.33;96648.92;1755302;81;21106;-82
2020/12/15 03:34:29;;;;;;;6.03;5.35;;;;;;;-0.62;80.35;96647.52;1747602;81;21641;-82
2020/12/15 03:36:55;;;;;;;5.55;4.40;;;;;;;-0.65;80.38;96648.55;1756285;81;21125;-83
2020/12/15 03:39:21;;;;;;;5.87;4.58;;;;;;;-0.64;80.45;96652.73;1752687;81;21431;-82
2020/12/15 03:41:47;;;;;;;6.05;4.72;;;;;;;-0.63;80.62;96656.91;1754666;81;21334;-82
2020/12/15 03:44:13;;;;;;;6.65;4.30;;;;;;;-0.59;80.53;96661.80;1758408;81;21086;-82
2020/12/15 03:46:39;;;;;;;6.62;3.98;;;;;;;-0.65;80.47;96663.86;1749390;81;21129;-83
2020/12/15 03:49:06;;;;;;;6.50;4.78;;;;;;;-0.66;80.38;96657.55;1688667;84;21165;-83
2020/12/15 03:51:32;;;;;;;10.10;6.72;;;;;;;-0.70;80.43;96658.70;1729642;80;21130;-82
2020/12/15 03:53:58;;;;;;;4.70;3.80;;;;;;;-0.72;80.56;96661.36;1766462;80;21249;-82
2020/12/15 03:56:25;;;;;;;3.08;2.30;;;;;;;-0.73;80.59;96659.73;1734842;80;21354;-83
2020/12/15 03:58:51;;;;;;;4.60;3.72;;;;;;;-0.75;80.67;96660.30;1765320;80;21130;-83
2020/12/15 04:01:17;;;;;;;5.30;3.87;;;;;;;-0.77;80.82;96663.42;1762528;80;21105;-83
2020/12/15 04:03:43;;;;;;;8.13;4.75;;;;;;;-0.76;80.79;96657.86;1758001;80;21133;-82
2020/12/15 04:06:09;;;;;;;12.63;9.13;;;;;;;-0.77;80.78;96658.31;1692270;84;21416;-83
2020/12/15 04:08:36;;;;;;;13.08;9.63;;;;;;;-0.76;80.92;96654.84;1760552;80;21095;-83
2020/12/15 04:11:02;;;;;;;11.80;7.70;;;;;;;-0.75;80.89;96650.55;1761420;81;21111;-82
2020/12/15 04:13:28;;;;;;;13.45;9.80;;;;;;;-0.76;80.96;96652.29;1754095;80;21241;-83
2020/12/15 04:15:54;;;;;;;17.45;12.03;;;;;;;-0.77;80.98;96649.38;1757185;80;21118;-83
2020/12/15 04:18:20;;;;;;;24.40;14.87;;;;;;;-0.74;80.95;96643.25;1751317;81;21397;-83
2020/12/15 04:20:46;;;;;;;48.85;29.32;;;;;;;-0.74;80.86;96645.34;1758381;81;21105;-83
2020/12/15 04:23:12;;;;;;;49.85;29.30;;;;;;;-0.71;81.24;96639.20;1730032;81;21382;-82
2020/12/15 04:25:54;;;;;;;26.25;18.80;;;;;;;-0.70;81.14;96648.03;1760487;81;21084;-83
2020/12/15 04:28:20;;;;;;;16.15;10.15;;;;;;;-0.72;80.94;96636.30;1759217;81;21226;-82
2020/12/15 04:30:47;;;;;;;9.95;6.92;;;;;;;-0.74;81.09;96643.25;1688925;84;21123;-82
2020/12/15 04:33:13;;;;;;;12.45;7.85;;;;;;;-0.74;81.08;96639.42;1748660;81;21130;-82
2020/12/15 04:35:39;;;;;;;8.23;7.15;;;;;;;-0.74;81.13;96647.08;1759338;81;21379;-82
2020/12/15 04:38:05;;;;;;;7.05;4.30;;;;;;;-0.70;81.20;96650.58;1756308;81;21165;-83
2020/12/15 04:40:33;;;;;;;19.57;13.03;;;;;;;-0.68;81.00;96642.81;1690902;84;21127;-82
2020/12/15 04:43:00;;;;;;;43.87;27.87;;;;;;;-0.64;81.12;96637.88;1688968;84;21142;-82
2020/12/15 04:45:27;;;;;;;20.77;14.50;;;;;;;-0.63;81.24;96645.89;1754086;81;21184;-83
2020/12/15 04:47:56;;;;;;;16.42;11.20;;;;;;;-0.63;81.13;96643.34;1758240;81;21111;-82
2020/12/15 04:50:23;;;;;;;33.02;20.95;;;;;;;-0.65;81.04;96647.73;1754799;81;21746;-82
2020/12/15 04:52:58;;;;;;;30.85;19.10;;;;;;;-0.63;81.43;96646.70;1760201;81;21103;-82
2020/12/15 04:55:25;;;;;;;17.00;10.40;;;;;;;-0.57;81.34;96648.47;1728303;81;21320;-82
2020/12/15 04:57:52;;;;;;;13.40;8.08;;;;;;;-0.62;81.17;96644.97;1755167;81;21130;-83
2020/12/15 05:00:18;;;;;;;9.83;7.65;;;;;;;-0.64;81.16;96647.63;1759220;80;21109;-82
2020/12/15 05:02:51;;;;;;;7.87;5.45;;;;;;;-0.64;81.11;96656.55;1763096;80;21249;-82
2020/12/15 05:05:17;;;;;;;;;;;;;;;-0.63;81.11;96659.46;1754574;81;21328;-83
2020/12/15 05:07:44;;;;;;;3.62;3.22;;;;;;;-0.66;81.14;96657.55;1748996;80;20229;-82
2020/12/15 05:10:16;;;;;;;2.75;2.08;;;;;;;-0.70;81.00;96658.23;1759512;81;21103;-83
2020/12/15 05:12:42;;;;;;;6.03;3.93;;;;;;;-0.74;81.04;96659.84;1756211;80;21146;-83
2020/12/15 05:15:12;;;;;;;4.28;2.87;;;;;;;-0.81;81.11;96666.30;1760206;81;21119;-82
2020/12/15 05:17:39;;;;;;;2.72;2.40;;;;;;;-0.85;81.13;96661.84;1760289;81;21122;-82
2020/12/15 05:20:06;;;;;;;3.08;2.65;;;;;;;-0.86;81.18;96665.31;1757297;81;21161;-82
2020/12/15 05:22:47;;;;;;;3.05;2.30;;;;;;;-0.86;81.21;96662.76;1765474;80;21107;-82
2020/12/15 05:25:27;;;;;;;5.47;3.85;;;;;;;-0.87;81.48;96662.86;1759117;81;21091;-82
2020/12/15 05:27:55;;;;;;;8.68;6.17;;;;;;;-0.84;81.44;96667.30;1683212;84;21130;-82
2020/12/15 05:30:21;;;;;;;10.95;7.75;;;;;;;-0.81;81.38;96679.86;1708191;83;21121;-82
2020/12/15 05:32:54;;;;;;;9.68;6.97;;;;;;;-0.76;81.48;96671.42;1710623;83;21147;-82
2020/12/15 05:35:31;;;;;;;7.65;5.55;;;;;;;-0.73;81.53;96672.95;1701149;83;21142;-82
2020/12/15 05:37:59;;;;;;;4.00;3.25;;;;;;;-0.69;81.52;96673.09;1712159;82;21166;-82
2020/12/15 05:40:26;;;;;;;3.02;2.50;;;;;;;-0.66;81.50;96669.86;1673958;83;21165;-83
2020/12/15 05:43:00;;;;;;;2.52;2.33;;;;;;;-0.64;81.51;96669.78;1704112;83;21352;-82
2020/12/15 05:45:27;;;;;;;2.55;2.33;;;;;;;-0.62;81.61;96667.94;1702695;83;21605;-82
2020/12/15 05:48:06;;;;;;;1.90;1.80;;;;;;;-0.59;81.59;96669.45;1703656;83;21704;-82
2020/12/15 05:50:32;;;;;;;2.22;2.02;;;;;;;-0.55;81.53;96667.84;1713049;83;21372;-82
2020/12/15 05:53:00;;;;;;;4.15;3.10;;;;;;;-0.54;81.55;96675.86;1669871;83;21431;-82
2020/12/15 05:55:27;;;;;;;3.33;2.70;;;;;;;-0.49;81.37;96674.25;1665700;83;21126;-82
2020/12/15 05:57:53;;;;;;;3.08;2.50;;;;;;;-0.44;81.16;96677.33;1696477;83;22099;-83
2020/12/15 06:00:20;;;;;;;4.62;3.30;;;;;;;-0.41;81.02;96680.94;1761656;81;21107;-83
2020/12/15 06:03:07;;;;;;;9.85;7.37;;;;;;;-0.36;80.91;96677.13;1747075;81;21173;-82
2020/12/15 06:05:36;;;;;;;14.50;9.60;;;;;;;-0.30;80.93;96683.56;1743885;81;21397;-83
2020/12/15 06:08:03;;;;;;;20.10;13.95;;;;;;;-0.28;80.69;96676.61;1753663;80;21122;-82
2020/12/15 06:10:30;;;;;;;23.52;15.00;;;;;;;-0.27;80.72;96674.41;1757004;80;21370;-83
2020/12/15 06:12:59;;;;;;;21.02;11.60;;;;;;;-0.26;80.69;96673.95;1745719;81;21236;-82
2020/12/15 06:15:26;;;;;;;10.38;7.37;;;;;;;-0.27;80.54;96671.86;1722680;82;21463;-82
2020/12/15 06:17:55;;;;;;;1.90;1.70;;;;;;;-0.30;80.60;96668.25;1743476;80;21118;-82
2020/12/15 06:20:21;;;;;;;1.72;1.62;;;;;;;-0.34;80.79;96662.98;1738233;82;21240;-83
2020/12/15 06:22:54;;;;;;;2.00;1.82;;;;;;;-0.31;80.86;96661.52;1732106;82;21435;-83
2020/12/15 06:25:30;;;;;;;2.70;2.20;;;;;;;-0.31;80.79;96654.66;1739442;81;21118;-83
2020/12/15 06:28:11;;;;;;;2.12;1.90;;;;;;;-0.29;80.74;96658.39;1742490;82;21143;-83
2020/12/15 06:30:42;;;;;;;3.65;2.98;;;;;;;-0.26;80.80;96654.33;1724958;82;21086;-82
2020/12/15 06:33:13;;;;;;;51.00;28.67;;;;;;;-0.22;80.45;96649.81;1716124;82;21102;-82
2020/12/15 06:35:39;;;;;;;39.20;23.80;;;;;;;-0.22;80.34;96653.19;1745648;80;21114;-83
2020/12/15 06:38:20;;;;;;;34.13;21.52;;;;;;;-0.19;80.20;96653.42;1752810;80;21224;-83
2020/12/15 06:40:47;;;;;;;14.55;9.80;;;;;;;-0.22;80.04;96648.54;1728891;82;21228;-83
2020/12/15 06:43:29;;;;;;;13.90;7.60;;;;;;;-0.29;80.00;96652.00;1732499;80;21134;-83
2020/12/15 06:46:07;;;;;;;6.40;4.22;;;;;;;-0.28;80.08;96647.25;1729767;80;21142;-82
2020/12/15 06:48:34;;;;;;;41.40;23.87;;;;;;;-0.32;80.17;96654.78;1732532;81;21269;-82
2020/12/15 06:51:00;;;;;;;59.70;30.27;;;;;;;-0.32;80.17;96659.88;1734431;82;21131;-82
2020/12/15 06:53:27;;;;;;;77.58;45.58;;;;;;;-0.36;80.18;96652.88;1728846;81;22106;-82
2020/12/15 06:56:00;;;;;;;67.82;36.98;;;;;;;-0.40;80.27;96657.85;1729457;81;21095;-83
2020/12/15 06:58:26;;;;;;;75.62;41.15;;;;;;;-0.43;80.33;96667.47;1733803;80;21128;-82
2020/12/15 07:00:52;;;;;;;80.55;48.78;;;;;;;-0.45;80.31;96673.96;1739777;80;21147;-82
2020/12/15 07:03:35;;;;;;;81.63;50.52;;;;;;;-0.46;80.83;96674.88;1749756;80;21102;-82
2020/12/15 07:06:13;;;;;;;79.70;49.38;;;;;;;-0.45;80.69;96671.87;1738622;80;21099;-81
2020/12/15 07:08:39;;;;;;;86.42;53.65;;;;;;;-0.43;80.92;96675.12;1734069;80;21152;-81
2020/12/15 07:11:06;;;;;;;73.80;44.50;;;;;;;-0.39;81.01;96678.63;1743543;81;21118;-82
2020/12/15 07:13:32;;;;;;;71.95;43.48;;;;;;;-0.40;80.82;96673.62;1748943;81;21312;-82
2020/12/15 07:15:58;;;;;;;74.22;45.00;;;;;;;-0.43;80.79;96668.28;1735959;80;21141;-82
2020/12/15 07:18:24;;;;;;;66.72;41.90;;;;;;;-0.46;80.78;96665.95;1752897;81;21118;-82
2020/12/15 07:20:50;;;;;;;53.48;33.08;;;;;;;-0.45;80.93;96665.48;1742590;81;21320;-81
2020/12/15 07:23:17;;;;;;;35.58;22.05;;;;;;;-0.48;80.79;96665.70;1748877;81;21118;-82
2020/12/15 07:25:44;;;;;;;26.33;16.45;;;;;;;-0.53;80.74;96669.02;1744005;80;21384;-82
2020/12/15 07:28:11;;;;;;;16.57;8.85;;;;;;;-0.50;80.94;96673.44;1757270;81;21947;-81
2020/12/15 07:30:38;;;;;;;6.85;5.03;;;;;;;-0.45;81.01;96669.31;1739122;80;21360;-82
2020/12/15 07:33:04;;;;;;;12.13;6.70;;;;;;;-0.43;80.80;96670.84;1749464;80;21332;-81
2020/12/15 07:35:30;;;;;;;29.50;19.40;;;;;;;-0.43;80.74;96663.64;1757086;80;21129;-83
2020/12/15 07:37:57;;;;;;;18.77;13.50;;;;;;;-0.44;80.72;96666.66;1738765;81;21117;-83
2020/12/15 07:40:28;;;;;;;9.08;7.45;;;;;;;-0.43;80.78;96666.19;1760478;80;21125;-82
2020/12/15 07:43:00;;;;;;;11.83;8.00;;;;;;;-0.41;80.78;96665.16;1724743;80;21252;-81
2020/12/15 07:45:33;;;;;;;21.30;14.28;;;;;;;-0.45;80.74;96652.72;1755738;80;21359;-82
2020/12/15 07:47:59;;;;;;;46.48;29.63;;;;;;;-0.40;80.95;96668.06;1752150;80;21110;-82
2020/12/15 07:50:29;;;;;;;21.07;15.30;;;;;;;-0.35;80.99;96665.18;1749803;80;21933;-82
2020/12/15 07:52:58;;;;;;;13.40;8.78;;;;;;;-0.34;80.81;96666.34;1746628;80;21272;-82
2020/12/15 07:55:24;;;;;;;10.70;7.87;;;;;;;-0.35;80.76;96668.55;1739525;81;21916;-82
2020/12/15 07:57:51;;;;;;;8.93;6.28;;;;;;;-0.34;80.80;96668.08;1749003;80;21272;-82
2020/12/15 08:00:21;;;;;;;8.78;5.62;;;;;;;-0.28;80.85;96668.95;1684506;83;21129;-82
2020/12/15 08:02:47;;;;;;;8.80;5.45;;;;;;;-0.24;80.84;96669.08;1676943;84;21254;-82
2020/12/15 08:05:22;;;;;;;10.15;6.22;;;;;;;-0.22;80.71;96677.91;1694035;83;21262;-82
2020/12/15 08:08:02;;;;;;;10.10;5.90;;;;;;;-0.22;80.64;96676.17;1681303;83;21305;-82
2020/12/15 08:10:34;;;;;;;10.20;6.20;;;;;;;-0.18;80.71;96678.85;1679778;84;21133;-81
2020/12/15 08:13:03;;;;;;;9.90;7.30;;;;;;;-0.12;80.64;96672.52;1665294;84;21349;-81
2020/12/15 08:15:32;;;;;;;20.70;11.95;;;;;;;-0.04;80.55;96678.70;1660068;84;21476;-82
2020/12/15 08:17:58;;;;;;;16.67;10.38;;;;;;;0.06;80.51;96689.55;1660999;84;21126;-82
2020/12/15 08:20:30;;;;;;;16.85;10.78;;;;;;;0.11;80.43;96678.06;1639734;85;21277;-81
2020/12/15 08:23:10;;;;;;;11.18;7.47;;;;;;;0.17;80.41;96675.55;1714207;82;21145;-81
2020/12/15 08:25:44;;;;;;;19.75;12.53;;;;;;;0.21;80.24;96677.77;1713887;82;21141;-83
2020/12/15 08:28:20;;;;;;;26.87;20.88;;;;;;;0.23;80.19;96677.19;1694671;82;21125;-82
2020/12/15 08:30:44;;;;;;;70.85;46.02;;;;;;;0.25;80.16;96687.30;1695782;82;21113;-81
2020/12/15 08:33:28;;;;;;;62.65;45.38;;;;;;;0.26;80.10;96686.37;1697457;82;21946;-82
2020/12/15 08:35:55;;;;;;;42.90;27.42;;;;;;;0.26;80.15;96683.36;1699450;82;21125;-81
2020/12/15 08:38:24;;;;;;;28.57;18.17;;;;;;;0.26;80.04;96679.98;1696372;82;21093;-82
2020/12/15 08:40:55;;;;;;;24.52;14.93;;;;;;;0.24;80.04;96681.84;1692907;82;21307;-82
2020/12/15 08:43:21;;;;;;;;;;;;;;;0.28;80.05;96688.35;1698029;82;21156;-82
2020/12/15 08:45:47;;;;;;;30.45;18.70;;;;;;;0.30;80.01;96691.14;1690550;82;20150;-82
2020/12/15 08:48:17;;;;;;;23.38;16.80;;;;;;;0.32;80.05;96689.75;1706966;82;21526;-82
2020/12/15 08:50:43;;;;;;;7.80;6.37;;;;;;;0.27;80.06;96690.56;1712080;82;21247;-82
2020/12/15 08:53:11;;;;;;;9.98;6.78;;;;;;;0.28;80.18;96693.00;1674859;82;21140;-82
2020/12/15 08:55:42;;;;;;;75.25;45.40;;;;;;;0.34;80.29;96703.27;1697505;82;21983;-82
2020/12/15 08:58:09;;;;;;;59.40;34.13;;;;;;;0.37;80.19;96704.78;1706891;82;21144;-82
2020/12/15 09:00:39;;;;;;;70.62;42.27;;;;;;;0.34;80.14;96703.73;1719610;82;21132;-82
2020/12/15 09:03:20;;;;;;;73.25;43.87;;;;;;;0.26;80.10;96698.69;1712597;82;21235;-82
2020/12/15 09:05:57;;;;;;;81.12;51.15;;;;;;;0.27;80.23;96692.66;1712779;82;21231;-81
2020/12/15 09:08:26;;;;;;;71.15;43.28;;;;;;;0.28;80.29;96693.00;1720129;82;21092;-81
2020/12/15 09:10:55;;;;;;;72.25;46.10;;;;;;;0.30;80.21;96689.05;1680802;85;21265;-82
2020/12/15 09:13:22;;;;;;;55.23;32.50;;;;;;;0.28;80.19;96685.80;1731555;82;21261;-82
2020/12/15 09:15:55;;;;;;;36.50;21.55;;;;;;;0.28;80.13;96685.80;1733866;82;21146;-82
2020/12/15 09:18:33;;;;;;;20.35;13.40;;;;;;;0.31;80.11;96683.02;1738880;80;21217;-82
2020/12/15 09:23:57;;;;;;;7.12;5.05;;;;;;;0.45;80.25;96673.88;1831945;76;27930;-81
2020/12/15 09:26:39;;;;;;;14.18;8.03;;;;;;;0.55;80.04;96676.13;1860455;77;21085;-81
2020/12/15 09:29:14;;;;;;;33.48;22.42;;;;;;;0.71;80.02;96683.48;1836617;77;21212;-84
2020/12/15 09:31:52;;;;;;;35.75;21.60;;;;;;;0.81;79.81;96676.77;1820714;78;21447;-84
2020/12/15 09:34:15;;;;;;;66.12;40.88;;;;;;;0.91;79.80;96678.16;1844381;76;21153;-83
2020/12/15 09:37:00;;;;;;;55.40;32.95;;;;;;;1.00;79.69;96683.06;1834594;76;21312;-84
2020/12/15 09:39:34;;;;;;;33.13;21.93;;;;;;;1.05;79.58;96680.50;1832326;76;21315;-83
2020/12/15 09:42:05;;;;;;;31.23;18.42;;;;;;;1.11;79.42;96686.89;1846715;76;21101;-85
2020/12/15 09:44:35;;;;;;;26.15;14.90;;;;;;;1.14;79.22;96687.97;1819839;77;21077;-84
2020/12/15 09:47:09;;;;;;;29.55;17.98;;;;;;;1.19;79.03;96683.30;1813098;76;21085;-84
2020/12/15 09:50:01;;;;;;;31.93;17.48;;;;;;;1.30;78.97;96676.06;1857668;76;21057;-83
2020/12/15 09:52:36;;;;;;;41.48;21.97;;;;;;;1.32;78.91;96684.00;1838285;77;21102;-83
2020/12/15 09:55:13;;;;;;;49.30;27.65;;;;;;;1.39;78.95;96685.62;1846681;76;21243;-83
2020/12/15 09:57:50;;;;;;;50.78;29.55;;;;;;;1.47;79.00;96686.67;1830312;76;21086;-84
2020/12/15 10:00:21;;;;;;;84.28;49.75;;;;;;;1.50;78.91;96688.18;1832091;77;21123;-84
2020/12/15 10:03:05;;;;;;;74.30;44.05;;;;;;;1.55;79.45;96688.62;1807363;77;21331;-84
2020/12/15 10:05:39;;;;;;;82.05;50.33;;;;;;;1.65;79.53;96684.44;1831228;76;21094;-84
2020/12/15 10:08:14;;;;;;;43.98;28.05;;;;;;;1.75;79.64;96688.36;1847949;76;21303;-84
2020/12/15 10:10:46;;;;;;;41.53;25.70;;;;;;;1.86;79.35;96697.78;1841857;76;21110;-84
2020/12/15 10:13:15;;;;;;;54.25;32.20;;;;;;;1.89;79.15;96697.06;1850950;76;21070;-84
2020/12/15 10:15:42;;;;;;;52.55;30.95;;;;;;;1.89;79.02;96695.78;1846578;77;21117;-83
2020/12/15 10:18:14;;;;;;;55.10;31.45;;;;;;;1.87;78.76;96696.38;1843035;76;21106;-84
2020/12/15 10:20:48;;;;;;;55.85;34.38;;;;;;;1.92;78.56;96694.25;1848165;76;21350;-84
2020/12/15 10:23:15;;;;;;;52.23;31.52;;;;;;;1.95;78.44;96687.63;1829256;77;21152;-82
2020/12/15 10:25:47;;;;;;;50.00;31.10;;;;;;;1.96;78.12;96683.32;1844892;77;21313;-82
2020/12/15 10:28:22;;;;;;;41.85;28.17;;;;;;;1.98;78.35;96677.13;1839141;77;21396;-82
2020/12/15 10:31:00;;;;;;;42.33;25.95;;;;;;;1.97;78.23;96676.79;1842008;77;21212;-83
2020/12/15 10:33:30;;;;;;;44.35;27.60;;;;;;;2.00;78.33;96675.73;1816014;77;21089;-84
2020/12/15 10:36:03;;;;;;;37.80;24.90;;;;;;;2.09;78.17;96677.55;1818830;77;21123;-83
2020/12/15 10:38:39;;;;;;;39.48;25.65;;;;;;;2.19;78.17;96673.80;1818099;78;21364;-83
2020/12/15 10:41:12;;;;;;;43.60;27.15;;;;;;;2.23;78.19;96672.13;1846329;78;21082;-84
2020/12/15 10:44:02;;;;;;;89.77;58.85;;;;;;;2.33;78.02;96673.03;1788916;79;21101;-84
2020/12/15 10:46:40;;;;;;;118.65;74.92;;;;;;;2.44;78.32;96662.36;1760789;80;21113;-83
2020/12/15 10:49:07;;;;;;;90.03;54.38;;;;;;;2.51;78.66;96662.22;1831025;77;21113;-84
2020/12/15 10:51:53;;;;;;;89.17;58.30;;;;;;;2.56;78.66;96662.18;1841059;77;21224;-83
2020/12/15 10:54:29;;;;;;;127.50;79.25;;;;;;;2.63;78.68;96665.08;1816270;78;21361;-84
2020/12/15 10:57:09;;;;;;;83.58;53.35;;;;;;;2.75;78.66;96658.91;1840882;77;21054;-84
2020/12/15 10:59:49;;;;;;;163.07;108.30;;;;;;;2.86;78.68;96656.76;1816356;77;21375;-82
2020/12/15 11:02:26;;;;;;;169.15;107.35;;;;;;;2.93;78.73;96652.76;1822718;78;21152;-82
2020/12/15 11:04:51;;;;;;;186.77;123.55;;;;;;;2.98;78.76;96656.55;1823499;77;21110;-82
2020/12/15 11:07:26;;;;;;;211.07;135.07;;;;;;;3.00;78.63;96653.39;1811288;77;21097;-82
2020/12/15 11:09:56;;;;;;;200.85;132.67;;;;;;;3.04;78.59;96649.27;1835973;77;21936;-82
2020/12/15 11:12:23;;;;;;;211.65;137.10;;;;;;;3.07;78.56;96647.73;1788877;78;21329;-82
2020/12/15 11:14:54;;;;;;;126.27;77.55;;;;;;;3.11;78.63;96648.65;1831576;77;21239;-82
2020/12/15 11:17:21;;;;;;;140.77;91.02;;;;;;;3.15;78.59;96645.34;1838083;76;21093;-82
2020/12/15 11:19:53;;;;;;;111.17;67.53;;;;;;;3.23;78.54;96645.02;1814169;77;21090;-82
2020/12/15 11:22:23;;;;;;;131.82;86.72;;;;;;;3.28;78.33;96639.05;1848828;77;21193;-83
2020/12/15 11:25:03;;;;;;;100.92;60.92;;;;;;;3.33;78.29;96642.50;1849569;77;21240;-83
2020/12/15 11:27:36;;;;;;;112.17;73.50;;;;;;;3.34;78.30;96638.98;1848324;77;21083;-82
2020/12/15 11:30:04;;;;;;;111.32;74.70;;;;;;;3.32;78.13;96629.32;1848301;77;21340;-82
2020/12/15 11:32:38;;;;;;;126.35;79.87;;;;;;;3.36;78.32;96637.09;1833570;77;21094;-82
2020/12/15 11:35:07;;;;;;;128.62;81.45;;;;;;;3.31;78.04;96633.65;1828352;78;21252;-82
2020/12/15 11:37:40;;;;;;;110.12;69.60;;;;;;;3.31;78.36;96636.69;1838731;77;21110;-82
2020/12/15 11:40:10;;;;;;;119.82;78.28;;;;;;;3.30;78.27;96635.06;1825757;77;21063;-82
2020/12/15 11:42:41;;;;;;;107.60;69.53;;;;;;;3.33;78.09;96627.09;1835632;77;21111;-83